Stations météo

réclame
Mon MeteoGroup
Capo Spartivento, Italie (16469): Température de l'air & dewpoint: 13.06.2018 20:00:00 - 19.06.2018 20:00:00 (CEST)Capo Spartivento, Italie (16469): Vitesse du vent: 13.06.2018 20:00:00 - 19.06.2018 20:00:00 (CEST)Capo Spartivento, Italie (16469): Direction du vent: 13.06.2018 20:00:00 - 19.06.2018 20:00:00 (CEST)Capo Spartivento, Italie (16469): reduced air pressure: 13.06.2018 20:00:00 - 19.06.2018 20:00:00 (CEST)Capo Spartivento, Italie (16469): Quantités de précipitations: 13.06.2018 20:00:00 - 19.06.2018 20:00:00 (CEST)
Date & Time tt [°C] td [°C] ff [km/h] ff [knt] dd ppp [hPa] rr [mm]
19.06.2018 20:00:00 - - - - - - -
19.06.2018 19:00:00 26,4 17,1 5 3 W 1013,4 -
19.06.2018 18:00:00 27,1 19,4 8 4 S 1013,2 -
19.06.2018 17:00:00 28,3 17,5 11 6 S 1013,1 -
19.06.2018 16:00:00 28,9 17,4 4 2 SW 1012,9 -
19.06.2018 15:00:00 29,2 18,6 8 4 NNW 1012,6 -
19.06.2018 14:00:00 28,0 17,2 9 5 W 1013,3 0,0
19.06.2018 13:00:00 28,0 18,1 15 8 S 1013,0 -
19.06.2018 12:00:00 27,4 19,9 13 7 S 1012,8 -
19.06.2018 11:00:00 27,0 19,8 15 8 S 1012,6 -
19.06.2018 10:00:00 26,5 19,1 9 5 S 1012,3 -
19.06.2018 09:00:00 25,7 20,0 4 2 S 1012,1 -
19.06.2018 08:00:00 25,5 20,0 4 2 S 1011,8 0,0
19.06.2018 07:00:00 25,3 19,4 0 0 N 1011,5 -
19.06.2018 06:00:00 24,6 18,9 5 3 WNW 1011,1 -
19.06.2018 05:00:00 24,6 18,2 5 3 N 1010,9 -
19.06.2018 04:00:00 24,8 19,8 4 2 WSW 1011,1 -
19.06.2018 03:00:00 25,0 19,3 4 2 S 1011,1 -
19.06.2018 02:00:00 24,5 18,8 8 4 W 1011,5 0,0
19.06.2018 01:00:00 - - - - - - -
19.06.2018 00:00:00 24,4 20,3 9 5 W 1011,6 -
18.06.2018 23:00:00 24,8 20,8 5 3 WNW 1011,5 -
18.06.2018 22:00:00 24,2 21,6 8 4 WNW 1011,2 -
18.06.2018 21:00:00 24,5 21,9 4 2 NNW 1010,8 -
18.06.2018 20:00:00 25,8 22,0 4 2 NE 1010,4 0,0
18.06.2018 19:00:00 26,4 22,2 4 2 SW 1010,4 -
18.06.2018 18:00:00 25,9 21,5 11 6 S 1010,4 -
18.06.2018 17:00:00 25,7 20,0 13 7 S 1010,5 -
18.06.2018 16:00:00 25,5 19,8 11 6 E 1010,8 -
18.06.2018 15:00:00 25,3 22,3 16 9 S 1011,2 -
18.06.2018 14:00:00 25,6 22,2 13 7 ESE 1011,7 0,0
18.06.2018 13:00:00 26,5 22,3 22 12 S 1011,4 -
18.06.2018 12:00:00 26,2 22,0 18 10 S 1011,4 -
18.06.2018 11:00:00 25,6 20,8 15 8 S 1011,1 -
18.06.2018 10:00:00 25,3 21,3 8 4 S 1011,0 -
18.06.2018 09:00:00 25,6 20,1 2 1 NNE 1011,0 -
18.06.2018 08:00:00 25,3 18,9 4 2 SSW 1010,9 0,0
18.06.2018 07:00:00 24,9 18,5 2 1 SSW 1010,8 -
18.06.2018 06:00:00 24,6 18,7 5 3 NW 1010,8 -
18.06.2018 05:00:00 24,1 18,7 5 3 NW 1010,3 -
18.06.2018 04:00:00 24,5 17,9 9 5 WNW 1010,4 -
18.06.2018 03:00:00 24,2 17,8 11 6 NW 1010,4 -
18.06.2018 02:00:00 23,7 18,5 8 4 NW 1010,7 0,0
18.06.2018 01:00:00 24,6 18,7 5 3 WNW 1011,1 -
18.06.2018 00:00:00 24,3 19,5 9 5 SW 1011,5 -
17.06.2018 23:00:00 24,4 19,4 8 4 SSW 1012,0 -
17.06.2018 22:00:00 23,9 21,2 8 4 NNW 1011,9 -
17.06.2018 21:00:00 24,4 21,5 9 5 NW 1011,5 -
17.06.2018 20:00:00 26,0 21,8 2 1 NE 1011,1 -
17.06.2018 19:00:00 26,8 21,5 4 2 SE 1010,8 -
17.06.2018 18:00:00 27,0 21,5 8 4 S 1010,8 -
17.06.2018 17:00:00 25,8 22,8 4 2 ENE 1011,6 -
17.06.2018 16:00:00 25,2 22,4 4 2 SW 1012,3 -
17.06.2018 15:00:00 25,7 22,5 15 8 S 1011,8 -
17.06.2018 14:00:00 25,9 22,7 15 8 S 1011,9 0,0
17.06.2018 13:00:00 25,2 22,4 11 6 NW 1012,1 -
17.06.2018 12:00:00 26,2 22,4 4 2 NNW 1011,9 -
17.06.2018 11:00:00 25,1 21,1 2 1 SE 1011,9 -
17.06.2018 10:00:00 25,3 19,4 2 1 NE 1011,6 -
17.06.2018 09:00:00 25,5 18,9 2 1 NE 1011,2 -
17.06.2018 08:00:00 24,6 18,7 8 4 N 1010,8 0,0
17.06.2018 07:00:00 23,7 19,6 5 3 W 1010,5 -
17.06.2018 06:00:00 23,5 20,0 4 2 W 1010,1 -
17.06.2018 05:00:00 24,8 21,7 5 3 W 1010,1 -
17.06.2018 04:00:00 23,6 20,7 9 5 SSW 1010,1 -
17.06.2018 03:00:00 23,8 20,5 8 4 ENE 1010,2 -
17.06.2018 02:00:00 24,2 21,6 2 1 SW 1010,7 0,0
17.06.2018 01:00:00 23,8 20,9 5 3 WNW 1010,8 -
17.06.2018 00:00:00 23,6 20,1 9 5 NNW 1010,6 -
16.06.2018 23:00:00 24,1 18,9 9 5 NNW 1010,4 -
16.06.2018 22:00:00 24,4 18,5 5 3 NW 1009,8 -
16.06.2018 21:00:00 24,4 19,8 9 5 NNW 1009,3 -
16.06.2018 20:00:00 24,5 20,8 11 6 NNW 1008,9 0,0
16.06.2018 19:00:00 25,5 21,7 8 4 N 1008,6 -
16.06.2018 18:00:00 26,4 20,4 11 6 NNE 1008,3 -
16.06.2018 17:00:00 26,6 18,4 11 6 NNE 1008,1 -
16.06.2018 16:00:00 26,7 18,8 15 8 NNE 1008,5 -
16.06.2018 15:00:00 25,0 19,3 9 5 N 1008,8 -
16.06.2018 14:00:00 27,0 20,5 9 5 SW 1008,8 0,0
16.06.2018 13:00:00 26,1 19,2 5 3 NE 1008,7 -
16.06.2018 12:00:00 25,2 20,2 5 3 NNE 1008,5 -
16.06.2018 11:00:00 24,1 19,7 9 5 NNW 1008,5 -
16.06.2018 10:00:00 23,1 20,0 4 2 W 1008,0 -
16.06.2018 09:00:00 22,9 19,2 5 3 WSW 1008,0 -
16.06.2018 08:00:00 22,3 21,2 4 2 N 1007,9 -
16.06.2018 07:00:00 21,7 20,1 11 6 SSE 1007,5 -
16.06.2018 06:00:00 21,5 19,2 13 7 SSW 1007,3 -
16.06.2018 05:00:00 21,7 18,6 8 4 NNW 1007,2 -
16.06.2018 04:00:00 21,4 18,5 18 10 W 1007,4 -
16.06.2018 03:00:00 21,0 20,3 11 6 SSW 1007,9 -
16.06.2018 02:00:00 21,4 20,0 9 5 N 1008,2 -
16.06.2018 01:00:00 21,8 21,6 13 7 W 1008,4 -
16.06.2018 00:00:00 21,8 21,7 8 4 WNW 1008,6 -
15.06.2018 23:00:00 22,3 22,2 5 3 NW 1008,1 -
15.06.2018 22:00:00 22,5 22,4 5 3 S 1007,8 -
15.06.2018 21:00:00 22,7 22,3 0 0 N 1007,3 -
15.06.2018 20:00:00 22,1 22,0 4 2 WNW 1007,2 -
15.06.2018 19:00:00 22,9 22,5 16 9 N 1007,2 -
15.06.2018 18:00:00 24,0 22,4 2 1 ESE 1006,6 -
15.06.2018 17:00:00 23,6 22,2 8 4 N 1006,4 -
15.06.2018 16:00:00 22,6 22,5 4 2 WSW 1006,8 -
15.06.2018 15:00:00 22,5 21,8 4 2 WNW 1006,8 -
15.06.2018 14:00:00 26,8 19,1 8 4 WNW 1006,2 0,0
15.06.2018 13:00:00 26,1 18,2 5 3 ESE 1006,0 -
15.06.2018 12:00:00 26,2 18,8 8 4 NW 1005,6 -
15.06.2018 11:00:00 25,7 18,3 8 4 E 1005,2 -
15.06.2018 10:00:00 25,0 18,6 5 3 E 1005,0 -
15.06.2018 09:00:00 25,4 19,2 8 4 ENE 1004,6 -
15.06.2018 08:00:00 24,1 17,8 5 3 NW 1004,2 0,0
15.06.2018 07:00:00 22,8 18,9 5 3 WNW 1004,2 -
15.06.2018 06:00:00 22,1 18,6 8 4 WNW 1004,1 -
15.06.2018 05:00:00 22,2 18,7 8 4 WNW 1003,9 -
15.06.2018 04:00:00 22,6 18,5 8 4 WNW 1003,8 -
15.06.2018 03:00:00 22,3 19,6 11 6 NW 1004,0 -
15.06.2018 02:00:00 23,0 19,5 9 5 N 1004,5 -
15.06.2018 01:00:00 23,4 19,9 9 5 NE 1004,7 -
15.06.2018 00:00:00 23,8 20,3 13 7 ENE 1004,8 -
14.06.2018 23:00:00 23,9 20,0 8 4 NNE 1004,5 -
14.06.2018 22:00:00 24,3 20,6 4 2 SSW 1004,8 -
14.06.2018 21:00:00 24,8 20,8 0 0 N 1004,0 -
14.06.2018 20:00:00 25,3 19,8 4 2 NE 1003,9 0,0
14.06.2018 19:00:00 25,8 18,4 5 3 NNE 1003,5 -
14.06.2018 18:00:00 25,3 17,9 9 5 N 1003,3 -
14.06.2018 17:00:00 25,1 19,2 9 5 N 1003,6 -
14.06.2018 16:00:00 25,8 18,2 18 10 SW 1003,5 -
14.06.2018 15:00:00 27,2 21,4 9 5 SSW 1003,9 -
14.06.2018 14:00:00 27,1 18,3 15 8 S 1004,2 0,0
14.06.2018 13:00:00 25,8 21,0 16 9 S 1004,4 -
14.06.2018 12:00:00 25,3 21,1 21 11 S 1004,7 -
14.06.2018 11:00:00 24,6 21,1 29 16 S 1004,7 -
14.06.2018 10:00:00 24,5 21,0 28 15 NW 1004,0 -
14.06.2018 09:00:00 24,4 18,7 22 12 SW 1004,1 -
14.06.2018 08:00:00 24,2 18,3 8 4 WSW 1004,3 0,0
14.06.2018 07:00:00 23,8 20,1 4 2 SSW 1004,6 -
14.06.2018 06:00:00 23,0 19,1 5 3 WNW 1004,7 -
14.06.2018 05:00:00 23,7 21,0 13 7 WSW 1004,0 -
14.06.2018 04:00:00 23,8 20,3 4 2 SW 1004,3 -
14.06.2018 03:00:00 24,4 21,8 4 2 SW 1004,7 -
14.06.2018 02:00:00 25,0 21,9 4 2 WSW 1005,1 0,0
14.06.2018 01:00:00 24,3 22,3 5 3 WNW 1005,4 -
14.06.2018 00:00:00 24,5 24,1 9 5 NNW 1006,2 -
13.06.2018 23:00:00 24,7 24,0 8 4 NW 1006,3 -
13.06.2018 22:00:00 24,7 24,6 4 2 W 1006,7 -
13.06.2018 21:00:00 25,4 24,3 2 1 NW 1005,8 -
13.06.2018 20:00:00 25,9 23,7 9 5 NE 1005,3 0,0

tt = Température de l'air
td = dewpoint
ff = Vitesse du vent
dd = Direction du vent
ppp = reduced air pressure
rr = Quantités de précipitations

stations d'obs. à proximité